createdAt,value
2023-01-03T00:00:21.831Z,99.90
2023-01-03T00:03:26.036Z,99.90
2023-01-03T00:06:31.002Z,99.90
2023-01-03T00:09:35.555Z,99.90
2023-01-03T00:12:39.317Z,99.90
2023-01-03T00:15:42.790Z,99.90
2023-01-03T00:18:46.449Z,99.90
2023-01-03T00:21:50.271Z,99.90
2023-01-03T00:24:55.120Z,99.90
2023-01-03T00:27:58.507Z,99.90
2023-01-03T00:31:07.808Z,99.90
2023-01-03T00:34:11.520Z,99.90
2023-01-03T00:37:15.599Z,99.90
2023-01-03T00:40:20.391Z,99.90
2023-01-03T00:43:32.398Z,99.90
2023-01-03T00:46:36.761Z,99.90
2023-01-03T00:49:40.059Z,99.90
2023-01-03T00:52:43.327Z,99.90
2023-01-03T00:58:52.528Z,99.90
2023-01-03T01:01:57.736Z,99.90
2023-01-03T01:05:00.993Z,99.90
2023-01-03T01:08:04.785Z,99.90
2023-01-03T01:11:09.717Z,99.90
2023-01-03T01:14:20.830Z,99.90
2023-01-03T01:17:24.028Z,99.90
2023-01-03T01:20:27.199Z,99.90
2023-01-03T01:23:30.507Z,99.90
2023-01-03T01:26:35.088Z,99.90
2023-01-03T01:29:39.419Z,99.90
2023-01-03T01:32:42.569Z,99.90
2023-01-03T01:35:46.020Z,99.90
2023-01-03T01:38:53.996Z,99.90
2023-01-03T01:42:20.309Z,99.90
2023-01-03T01:45:24.562Z,99.90
2023-01-03T01:48:27.857Z,99.90
2023-01-03T01:51:34.286Z,99.90
2023-01-03T01:54:37.970Z,99.90
2023-01-03T01:57:44.012Z,99.90
2023-01-03T02:01:06.679Z,99.90
2023-01-03T02:04:15.743Z,99.90
2023-01-03T02:07:19.862Z,99.90
2023-01-03T02:10:33.762Z,99.90
2023-01-03T02:13:49.972Z,99.90
2023-01-03T02:17:01.510Z,99.90
2023-01-03T02:20:21.020Z,99.90
2023-01-03T02:24:01.968Z,99.90
2023-01-03T02:27:20.834Z,99.90
2023-01-03T02:30:38.836Z,99.90
2023-01-03T02:33:49.769Z,99.90
2023-01-03T02:37:02.802Z,99.90
2023-01-03T02:40:12.179Z,99.90
2023-01-03T02:43:21.711Z,99.90
2023-01-03T02:46:29.804Z,99.90
2023-01-03T02:49:36.526Z,99.90
2023-01-03T02:52:42.364Z,99.90
2023-01-03T02:55:46.099Z,99.90
2023-01-03T02:58:54.107Z,99.90
2023-01-03T03:01:59.890Z,99.90
2023-01-03T03:05:06.705Z,99.90
2023-01-03T03:08:09.956Z,99.90
2023-01-03T03:11:31.821Z,99.90
2023-01-03T03:14:38.327Z,99.90
2023-01-03T03:17:44.644Z,99.90
2023-01-03T03:21:05.601Z,99.90
2023-01-03T03:24:30.137Z,99.90
2023-01-03T03:27:51.912Z,99.90
2023-01-03T03:30:59.889Z,99.90
2023-01-03T03:34:10.175Z,99.90
2023-01-03T03:37:18.094Z,99.90
2023-01-03T03:40:40.188Z,99.90
2023-01-03T03:44:07.421Z,99.90
2023-01-03T03:47:18.129Z,99.90
2023-01-03T03:50:28.907Z,99.90
2023-01-03T03:53:35.660Z,99.90
2023-01-03T03:56:41.697Z,99.90
2023-01-03T03:59:50.067Z,99.90
2023-01-03T04:02:55.348Z,99.90
2023-01-03T04:06:09.815Z,99.90
2023-01-03T04:09:13.190Z,99.90
2023-01-03T04:12:16.381Z,99.90
2023-01-03T04:15:20.109Z,99.90
2023-01-03T04:18:23.299Z,99.90
2023-01-03T04:21:28.262Z,99.90
2023-01-03T04:24:31.399Z,99.90
2023-01-03T04:27:34.760Z,99.90
2023-01-03T04:30:38.404Z,99.90
2023-01-03T04:33:41.523Z,99.90
2023-01-03T04:36:46.181Z,99.90
2023-01-03T04:39:49.439Z,99.90
2023-01-03T04:43:16.728Z,99.90
2023-01-03T04:46:26.793Z,99.90
2023-01-03T04:49:37.687Z,99.90
2023-01-03T04:52:43.506Z,99.90
2023-01-03T04:55:48.749Z,99.90
2023-01-03T04:58:52.775Z,99.90
2023-01-03T05:01:56.137Z,99.90
2023-01-03T05:04:59.597Z,99.90
2023-01-03T05:08:07.259Z,99.90
2023-01-03T05:11:10.907Z,99.90
2023-01-03T05:14:16.591Z,99.90
2023-01-03T05:17:20.463Z,99.90
2023-01-03T05:20:42.622Z,99.90
2023-01-03T05:24:04.740Z,99.90
2023-01-03T05:27:08.016Z,99.90
2023-01-03T05:30:12.040Z,99.90
2023-01-03T05:33:15.527Z,99.90
2023-01-03T05:36:18.795Z,99.90
2023-01-03T05:39:23.352Z,99.90
2023-01-03T05:42:26.890Z,99.90
2023-01-03T05:45:30.108Z,99.90
2023-01-03T05:48:33.480Z,99.90
2023-01-03T05:51:37.072Z,99.90
2023-01-03T05:54:41.829Z,99.90
2023-01-03T05:57:47.059Z,99.90
2023-01-03T06:00:50.846Z,99.90
2023-01-03T06:03:54.462Z,99.90
2023-01-03T06:06:57.701Z,99.90
2023-01-03T06:10:02.466Z,99.90
2023-01-03T06:13:05.704Z,99.90
2023-01-03T06:16:28.349Z,99.90
2023-01-03T06:19:31.790Z,99.90
2023-01-03T06:22:35.367Z,99.90
2023-01-03T06:28:52.900Z,99.90
2023-01-03T06:31:56.191Z,99.90
2023-01-03T06:35:01.583Z,99.90
2023-01-03T06:38:09.683Z,99.90
2023-01-03T06:41:15.555Z,99.90
2023-01-03T06:44:19.111Z,99.90
2023-01-03T06:47:39.640Z,99.90
2023-01-03T06:51:01.633Z,99.90
2023-01-03T06:54:04.954Z,99.90
2023-01-03T06:57:09.713Z,99.90
2023-01-03T07:00:29.450Z,99.90
2023-01-03T07:03:33.282Z,99.90
2023-01-03T07:06:36.488Z,99.90
2023-01-03T07:09:39.746Z,99.90
2023-01-03T07:13:01.587Z,99.90
2023-01-03T07:16:05.135Z,99.90
2023-01-03T07:19:12.091Z,99.90
2023-01-03T07:22:15.843Z,99.90
2023-01-03T07:25:19.213Z,99.90
2023-01-03T07:28:23.908Z,99.90
2023-01-03T07:31:28.662Z,99.90
2023-01-03T07:34:31.974Z,99.90
2023-01-03T07:37:35.263Z,99.90
2023-01-03T07:40:38.631Z,99.90
2023-01-03T07:43:44.621Z,99.90
2023-01-03T07:46:48.077Z,99.90
2023-01-03T07:49:51.569Z,99.90
2023-01-03T07:52:54.875Z,99.90
2023-01-03T07:56:09.122Z,99.90
2023-01-03T08:02:19.348Z,99.90
2023-01-03T08:05:23.611Z,99.90
2023-01-03T08:08:26.843Z,99.90
2023-01-03T08:11:47.438Z,99.90
2023-01-03T08:14:52.171Z,99.90
2023-01-03T08:17:55.459Z,99.90
2023-01-03T08:20:58.707Z,99.90
2023-01-03T08:24:01.956Z,99.90
2023-01-03T08:27:05.437Z,99.90
2023-01-03T08:30:11.816Z,99.90
2023-01-03T08:33:17.322Z,99.90
2023-01-03T08:36:22.057Z,99.90
2023-01-03T08:39:28.824Z,99.90
2023-01-03T08:42:33.890Z,99.90
2023-01-03T08:45:39.589Z,99.90
2023-01-03T08:48:43.417Z,99.90
2023-01-03T08:51:46.798Z,99.90
2023-01-03T08:54:50.356Z,99.90
2023-01-03T08:57:53.882Z,99.90
2023-01-03T09:01:02.686Z,99.90
2023-01-03T09:04:06.264Z,99.90
2023-01-03T09:07:09.644Z,99.90
2023-01-03T09:10:13.556Z,99.90
2023-01-03T09:13:16.846Z,99.90
2023-01-03T09:16:21.458Z,99.90
2023-01-03T09:19:24.923Z,99.90
2023-01-03T09:22:28.322Z,99.90
2023-01-03T09:25:36.766Z,99.90
2023-01-03T09:28:40.565Z,99.90
2023-01-03T09:34:49.342Z,99.90
2023-01-03T09:37:52.507Z,99.90
2023-01-03T09:41:01.765Z,99.90
2023-01-03T09:44:07.645Z,99.90
2023-01-03T09:47:20.255Z,99.90
2023-01-03T09:50:35.055Z,99.90
2023-01-03T09:54:04.646Z,99.90
2023-01-03T09:57:34.300Z,99.90
2023-01-03T10:01:00.623Z,99.90
2023-01-03T10:04:18.498Z,99.90
2023-01-03T10:07:33.757Z,99.90
2023-01-03T10:10:47.552Z,99.90
2023-01-03T10:14:07.729Z,99.90
2023-01-03T10:17:22.166Z,99.90
2023-01-03T10:20:40.697Z,99.90
2023-01-03T10:23:44.568Z,99.90
2023-01-03T10:26:50.953Z,99.90
2023-01-03T10:29:57.257Z,99.90
2023-01-03T10:33:18.996Z,99.90
2023-01-03T10:39:32.544Z,99.90
2023-01-03T10:42:37.223Z,99.90
2023-01-03T10:45:56.569Z,99.90
2023-01-03T10:49:31.192Z,87.20
2023-01-03T10:52:40.514Z,68.10
2023-01-03T10:55:48.286Z,68.40
2023-01-03T10:59:11.607Z,52.20
2023-01-03T11:02:18.471Z,27.20
2023-01-03T11:05:24.150Z,31.60
2023-01-03T11:08:40.954Z,28.10
2023-01-03T11:11:44.466Z,25.50
2023-01-03T11:14:52.094Z,6.40
2023-01-03T11:17:56.523Z,1.00
2023-01-03T11:21:09.938Z,1.00
2023-01-03T11:24:28.133Z,1.00
2023-01-03T11:27:58.310Z,1.00
2023-01-03T11:31:08.356Z,1.00
2023-01-03T11:34:37.816Z,1.00
2023-01-03T11:37:59.300Z,1.00
2023-01-03T11:41:15.818Z,1.00
2023-01-03T11:44:44.848Z,1.00
2023-01-03T11:47:56.383Z,1.00
2023-01-03T11:51:08.452Z,1.00
2023-01-03T11:54:26.619Z,1.00
2023-01-03T11:57:41.825Z,1.00
2023-01-03T12:00:51.525Z,1.00
2023-01-03T12:04:09.735Z,1.00
2023-01-03T12:10:47.448Z,1.00
2023-01-03T12:14:00.874Z,1.00
2023-01-03T12:17:10.792Z,1.00
2023-01-03T12:20:20.957Z,1.00
2023-01-03T12:23:33.310Z,1.00
2023-01-03T12:26:38.456Z,1.00
2023-01-03T12:29:52.134Z,1.00
2023-01-03T12:32:58.238Z,1.00
2023-01-03T12:36:05.683Z,1.00
2023-01-03T12:39:33.576Z,1.00
2023-01-03T12:42:42.106Z,1.00
2023-01-03T12:45:53.743Z,1.00
2023-01-03T12:49:02.456Z,1.00
2023-01-03T12:52:06.778Z,1.00
2023-01-03T12:55:22.630Z,1.00
2023-01-03T12:58:39.965Z,1.00
2023-01-03T13:01:48.865Z,1.00
2023-01-03T13:04:56.205Z,1.00
2023-01-03T13:08:10.824Z,1.00
2023-01-03T13:11:21.152Z,1.00
2023-01-03T13:14:25.232Z,1.00
2023-01-03T13:17:31.138Z,1.00
2023-01-03T13:20:36.783Z,1.00
2023-01-03T13:23:59.537Z,1.00
2023-01-03T13:27:35.193Z,1.00
2023-01-03T13:30:39.371Z,1.00
2023-01-03T13:33:55.784Z,1.00
2023-01-03T13:37:18.021Z,1.00
2023-01-03T13:41:07.515Z,1.00
2023-01-03T13:43:55.388Z,1.00
2023-01-03T13:46:59.413Z,1.00
2023-01-03T13:50:04.395Z,1.00
2023-01-03T13:53:31.313Z,1.00
2023-01-03T13:56:58.535Z,1.00
2023-01-03T14:00:09.638Z,1.00
2023-01-03T14:03:51.890Z,1.00
2023-01-03T14:07:11.803Z,1.00
2023-01-03T14:10:46.380Z,1.00
2023-01-03T14:13:51.028Z,1.00
2023-01-03T14:16:56.095Z,1.00
2023-01-03T14:20:06.065Z,1.00
2023-01-03T14:23:57.914Z,1.00
2023-01-03T14:26:38.140Z,1.00
2023-01-03T14:29:43.447Z,1.00
2023-01-03T14:32:47.651Z,1.00
2023-01-03T14:35:51.598Z,1.00
2023-01-03T14:38:58.238Z,5.40
2023-01-03T14:42:03.388Z,5.60
2023-01-03T14:45:08.928Z,10.90
2023-01-03T14:53:01.792Z,21.90
2023-01-03T14:56:07.586Z,30.00
2023-01-03T14:59:11.117Z,36.70
2023-01-03T15:02:15.251Z,43.20
2023-01-03T15:05:31.205Z,46.70
2023-01-03T15:08:43.477Z,55.00
2023-01-03T15:11:59.671Z,62.20
2023-01-03T15:15:20.969Z,61.80
2023-01-03T15:18:26.820Z,69.90
2023-01-03T15:21:31.377Z,66.10
2023-01-03T15:24:43.239Z,64.60
2023-01-03T15:27:50.204Z,64.40
2023-01-03T15:30:56.176Z,64.30
2023-01-03T15:34:04.660Z,66.80
2023-01-03T15:37:15.953Z,66.50
2023-01-03T15:40:19.967Z,74.40
2023-01-03T15:43:30.842Z,81.60
2023-01-03T15:46:34.475Z,81.10
2023-01-03T15:49:42.093Z,86.80
2023-01-03T15:52:45.987Z,88.30
2023-01-03T15:55:50.841Z,91.30
2023-01-03T15:58:59.094Z,94.10
2023-01-03T16:02:03.981Z,98.10
2023-01-03T16:05:08.608Z,97.60
2023-01-03T16:08:24.807Z,96.10
2023-01-03T16:11:34.118Z,94.50
2023-01-03T16:14:44.187Z,94.00
2023-01-03T16:17:47.783Z,94.00
2023-01-03T16:20:51.678Z,93.40
2023-01-03T16:23:55.239Z,91.90
2023-01-03T16:26:59.411Z,92.00
2023-01-03T16:30:04.814Z,91.80
2023-01-03T16:33:10.473Z,91.10
2023-01-03T16:36:26.764Z,92.70
2023-01-03T16:39:30.178Z,91.80
2023-01-03T16:42:33.556Z,92.40
2023-01-03T16:45:47.143Z,94.50
2023-01-03T16:48:53.656Z,94.20
2023-01-03T16:55:05.688Z,94.40
2023-01-03T16:58:17.165Z,95.80
2023-01-03T17:04:26.592Z,98.50
2023-01-03T17:07:30.485Z,98.60
2023-01-03T17:10:36.941Z,98.80
2023-01-03T17:13:43.118Z,97.00
2023-01-03T17:20:07.498Z,96.50
2023-01-03T17:23:12.104Z,97.60
2023-01-03T17:26:18.125Z,97.20
2023-01-03T17:29:25.040Z,97.90
2023-01-03T17:32:30.447Z,97.40
2023-01-03T17:35:34.879Z,96.90
2023-01-03T17:38:38.603Z,96.60
2023-01-03T17:41:55.993Z,97.00
2023-01-03T17:45:16.522Z,98.50
2023-01-03T17:48:38.639Z,99.90
2023-01-03T17:51:41.979Z,99.90
2023-01-03T17:54:45.469Z,99.90
2023-01-03T17:57:49.094Z,99.90
2023-01-03T18:00:52.769Z,99.90
2023-01-03T18:07:02.399Z,99.90
2023-01-03T18:10:09.017Z,99.90
2023-01-03T18:13:22.245Z,99.90
2023-01-03T18:16:26.043Z,99.90
2023-01-03T18:19:31.077Z,99.90
2023-01-03T18:22:34.707Z,99.90
2023-01-03T18:25:38.072Z,99.90
2023-01-03T18:28:41.670Z,99.90
2023-01-03T18:31:45.856Z,99.90
2023-01-03T18:34:50.923Z,99.90
2023-01-03T18:37:55.895Z,99.90
2023-01-03T18:41:05.028Z,99.90
2023-01-03T18:44:23.234Z,99.90
2023-01-03T18:47:26.727Z,99.90
2023-01-03T18:50:31.768Z,99.90
2023-01-03T18:53:35.196Z,99.90
2023-01-03T18:56:43.679Z,99.90
2023-01-03T18:59:47.605Z,99.90
2023-01-03T19:02:52.326Z,99.90
2023-01-03T19:05:59.422Z,99.90
2023-01-03T19:09:06.449Z,99.90
2023-01-03T19:12:14.825Z,99.90
2023-01-03T19:15:23.002Z,99.90
2023-01-03T19:18:26.930Z,99.90
2023-01-03T19:21:34.908Z,99.90
2023-01-03T19:24:39.776Z,99.90
2023-01-03T19:27:47.907Z,99.90
2023-01-03T19:33:56.508Z,99.90
2023-01-03T19:37:01.382Z,99.90
2023-01-03T19:40:05.432Z,99.90
2023-01-03T19:46:16.914Z,99.90
2023-01-03T19:49:22.308Z,99.90
2023-01-03T19:52:27.478Z,99.90
2023-01-03T19:55:33.009Z,99.90
2023-01-03T19:58:42.988Z,99.90
2023-01-03T20:02:22.698Z,99.90
2023-01-03T20:05:17.791Z,99.90
2023-01-03T20:08:22.679Z,99.90
2023-01-03T20:11:26.225Z,99.90
2023-01-03T20:14:29.868Z,99.90
2023-01-03T20:17:36.406Z,99.90
2023-01-03T20:20:40.309Z,99.90
2023-01-03T20:23:49.072Z,99.90
2023-01-03T20:26:55.427Z,99.90
2023-01-03T20:30:00.200Z,99.90
2023-01-03T20:33:03.780Z,99.90
2023-01-03T20:36:18.051Z,99.90
2023-01-03T20:39:30.626Z,99.90
2023-01-03T20:42:34.471Z,99.90
2023-01-03T20:45:39.171Z,99.90
2023-01-03T20:48:42.800Z,99.90
2023-01-03T20:57:56.064Z,99.90
2023-01-03T21:01:05.016Z,99.90
2023-01-03T21:04:08.829Z,99.90
2023-01-03T21:07:26.771Z,99.90
2023-01-03T21:10:40.028Z,99.90
2023-01-03T21:13:43.824Z,99.90
2023-01-03T21:16:47.825Z,99.90
2023-01-03T21:19:51.182Z,99.90
2023-01-03T21:22:54.973Z,99.90
2023-01-03T21:25:59.842Z,99.90
2023-01-03T21:29:03.132Z,99.90
2023-01-03T21:32:06.898Z,99.90
2023-01-03T21:35:13.819Z,99.90
2023-01-03T21:38:17.357Z,99.90
2023-01-03T21:41:23.491Z,99.90
2023-01-03T21:44:27.063Z,99.90
2023-01-03T21:47:31.410Z,99.90
2023-01-03T21:50:38.400Z,99.90
2023-01-03T21:53:42.451Z,99.90
2023-01-03T21:59:50.728Z,99.90
2023-01-03T22:03:11.258Z,99.90
2023-01-03T22:06:15.528Z,99.90
2023-01-03T22:09:36.295Z,99.90
2023-01-03T22:12:41.125Z,99.90
2023-01-03T22:15:44.499Z,99.90
2023-01-03T22:18:47.820Z,99.90
2023-01-03T22:21:51.086Z,99.90
2023-01-03T22:24:54.250Z,99.90
2023-01-03T22:27:58.884Z,99.90
2023-01-03T22:31:02.276Z,99.90
2023-01-03T22:34:05.555Z,99.90
2023-01-03T22:37:08.926Z,99.90
2023-01-03T22:40:14.799Z,99.90
2023-01-03T22:43:19.368Z,99.90
2023-01-03T22:46:22.667Z,99.90
2023-01-03T22:49:25.951Z,99.90
2023-01-03T22:52:29.166Z,99.90
2023-01-03T22:55:32.587Z,99.90
2023-01-03T22:58:38.042Z,99.90
2023-01-03T23:01:41.688Z,99.90
2023-01-03T23:04:45.045Z,99.90
2023-01-03T23:07:48.338Z,99.90
2023-01-03T23:11:11.779Z,99.90
2023-01-03T23:14:17.517Z,99.90
2023-01-03T23:17:37.911Z,99.90
2023-01-03T23:20:48.954Z,99.90
2023-01-03T23:23:53.416Z,99.90
2023-01-03T23:26:56.581Z,99.90
2023-01-03T23:33:05.049Z,99.90
2023-01-03T23:36:10.551Z,99.90
2023-01-03T23:39:14.797Z,99.90
2023-01-03T23:42:18.081Z,99.90
2023-01-03T23:48:26.175Z,99.90
2023-01-03T23:51:29.349Z,99.90
2023-01-03T23:54:32.541Z,99.90
2023-01-03T23:57:35.742Z,99.90
